Excelsior Springs, Missouri
Current Conditions -  °F | °C
As of 3:55 AM on Thursday 27 Nov 2014 (Local Time) from KGPH Reporting Station
Overcast Overcast  
Wind Chill: 20°   Ceiling: 1600
Heat Index: 28°   Visibility: 10mi
Dew Point: 23°   Wind: 9mph
Humidity: 80%   Direction: 330°NNW
Pressure: 30.48"   Gusts: NA
Location:  39.34°N, 94.23°W
Report Text: KGPH 270955Z AUTO 33008KT 10SM OVC016 M02/M05 A3048 RMK AO2
Loading
Personal Weather Stations






























Interactive Weather Map New forecast layout! Learn more

10-Day Weather Forecast

Advertisements
Track Severe Weather on mobile